Van Alstyne, Texas
Current Conditions -  °F | °C
As of 3:53 AM on Friday 19 Dec 2014 (Local Time) from KTKI Reporting Station
Overcast Overcast  
Wind Chill: 41°   Ceiling: 500
Heat Index: 45°   Visibility: 7mi
Dew Point: 43°   Wind: 7mph
Humidity: 93%   Direction: 40°NE
Pressure: 30.12"   Gusts: NA
Location:  33.42°N, 96.58°W
Report Text: KTKI 190953Z AUTO 04006KT 7SM OVC005 07/06 A3012 RMK AO2 SLP209 T00720061
Loading
Personal Weather Stations






























Interactive Weather Map New forecast layout! Learn more

10-Day Weather Forecast

Advertisements
Track Severe Weather on mobile